createdAt,value
2023-04-27T00:01:02.690Z,8.47
2023-04-27T00:03:30.998Z,8.47
2023-04-27T00:05:59.366Z,8.45
2023-04-27T00:08:27.489Z,8.42
2023-04-27T00:10:55.637Z,8.42
2023-04-27T00:13:24.006Z,8.38
2023-04-27T00:15:52.301Z,8.33
2023-04-27T00:18:22.004Z,8.28
2023-04-27T00:20:51.147Z,8.21
2023-04-27T00:23:19.460Z,8.10
2023-04-27T00:25:47.543Z,7.99
2023-04-27T00:28:15.803Z,7.90
2023-04-27T00:30:45.084Z,7.83
2023-04-27T00:33:13.273Z,7.74
2023-04-27T00:35:42.703Z,7.62
2023-04-27T00:38:11.065Z,7.55
2023-04-27T00:40:39.375Z,7.47
2023-04-27T00:43:07.482Z,7.38
2023-04-27T00:45:42.289Z,7.28
2023-04-27T00:48:10.577Z,7.18
2023-04-27T00:50:39.487Z,7.09
2023-04-27T00:53:09.337Z,6.97
2023-04-27T00:55:37.635Z,6.85
2023-04-27T00:58:06.045Z,6.75
2023-04-27T01:00:37.155Z,6.69
2023-04-27T01:03:05.769Z,6.59
2023-04-27T01:05:34.378Z,6.50
2023-04-27T01:08:03.338Z,6.41
2023-04-27T01:10:32.912Z,6.35
2023-04-27T01:13:01.144Z,6.29
2023-04-27T01:15:29.516Z,6.24
2023-04-27T01:18:01.420Z,6.20
2023-04-27T01:20:30.475Z,6.17
2023-04-27T01:22:59.073Z,6.12
2023-04-27T01:25:28.621Z,6.03
2023-04-27T01:27:56.768Z,5.96
2023-04-27T01:30:24.976Z,5.96
2023-04-27T01:32:53.191Z,5.96
2023-04-27T01:35:27.594Z,5.98
2023-04-27T01:37:57.854Z,5.97
2023-04-27T01:40:25.921Z,5.95
2023-04-27T01:42:55.428Z,5.92
2023-04-27T01:45:23.737Z,5.89
2023-04-27T01:47:53.310Z,5.83
2023-04-27T01:50:21.601Z,5.78
2023-04-27T01:52:49.757Z,5.71
2023-04-27T01:55:18.019Z,5.63
2023-04-27T01:57:46.121Z,5.58
2023-04-27T02:00:17.768Z,5.55
2023-04-27T02:02:46.097Z,5.51
2023-04-27T02:05:14.426Z,5.48
2023-04-27T02:07:42.602Z,5.46
2023-04-27T02:10:11.670Z,5.44
2023-04-27T02:12:40.105Z,5.42
2023-04-27T02:15:09.662Z,5.42
2023-04-27T02:17:39.747Z,5.39
2023-04-27T02:20:10.036Z,5.42
2023-04-27T02:22:38.293Z,5.39
2023-04-27T02:25:07.305Z,5.42
2023-04-27T02:27:35.342Z,5.41
2023-04-27T02:30:06.480Z,5.43
2023-04-27T02:32:35.698Z,5.49
2023-04-27T02:35:05.931Z,5.56
2023-04-27T02:37:34.148Z,5.63
2023-04-27T02:40:02.475Z,5.72
2023-04-27T02:42:31.655Z,5.80
2023-04-27T02:44:59.722Z,5.85
2023-04-27T02:47:28.057Z,5.92
2023-04-27T02:49:56.231Z,5.97
2023-04-27T02:52:25.718Z,6.03
2023-04-27T02:54:53.832Z,6.08
2023-04-27T02:57:21.943Z,6.08
2023-04-27T02:59:50.050Z,6.13
2023-04-27T03:02:18.285Z,6.20
2023-04-27T03:04:46.449Z,6.26
2023-04-27T03:07:14.587Z,6.32
2023-04-27T03:09:43.990Z,6.38
2023-04-27T03:12:12.211Z,6.45
2023-04-27T03:14:40.705Z,6.49
2023-04-27T03:17:09.005Z,6.52
2023-04-27T03:19:37.254Z,6.55
2023-04-27T03:22:05.290Z,6.53
2023-04-27T03:24:33.384Z,6.55
2023-04-27T03:27:03.530Z,6.53
2023-04-27T03:29:31.585Z,6.52
2023-04-27T03:31:59.672Z,6.53
2023-04-27T03:34:27.758Z,6.56
2023-04-27T03:36:56.253Z,6.57
2023-04-27T03:39:24.353Z,6.62
2023-04-27T03:41:52.444Z,6.64
2023-04-27T03:44:21.958Z,6.68
2023-04-27T03:46:50.340Z,6.75
2023-04-27T03:49:18.543Z,6.85
2023-04-27T03:51:46.695Z,6.90
2023-04-27T03:54:15.133Z,6.97
2023-04-27T03:56:44.534Z,7.04
2023-04-27T03:59:12.916Z,7.09
2023-04-27T04:01:42.696Z,7.11
2023-04-27T04:04:11.525Z,7.16
2023-04-27T04:06:39.795Z,7.17
2023-04-27T04:09:07.902Z,7.14
2023-04-27T04:11:36.020Z,7.15
2023-04-27T04:14:04.121Z,7.15
2023-04-27T04:16:32.206Z,7.19
2023-04-27T04:19:01.715Z,7.27
2023-04-27T04:21:29.847Z,7.38
2023-04-27T04:23:57.938Z,7.43
2023-04-27T04:26:26.101Z,7.53
2023-04-27T04:28:54.100Z,7.64
2023-04-27T04:31:22.194Z,7.78
2023-04-27T04:33:50.571Z,7.92
2023-04-27T04:36:20.141Z,8.03
2023-04-27T04:38:48.385Z,8.14
2023-04-27T04:41:16.629Z,8.25
2023-04-27T04:43:44.722Z,8.35
2023-04-27T04:46:12.975Z,8.46
2023-04-27T04:48:41.044Z,8.51
2023-04-27T04:51:09.226Z,8.62
2023-04-27T04:53:38.751Z,8.79
2023-04-27T04:56:10.606Z,8.90
2023-04-27T04:58:39.040Z,8.95
2023-04-27T05:01:07.590Z,9.00
2023-04-27T05:03:36.045Z,9.12
2023-04-27T05:06:04.387Z,9.27
2023-04-27T05:08:32.585Z,9.41
2023-04-27T05:11:02.061Z,9.55
2023-04-27T05:13:30.172Z,9.73
2023-04-27T05:15:58.236Z,9.88
2023-04-27T05:18:26.419Z,10.00
2023-04-27T05:20:54.665Z,10.12
2023-04-27T05:23:23.003Z,10.19
2023-04-27T05:25:51.132Z,10.26
2023-04-27T05:28:20.859Z,10.32
2023-04-27T05:30:48.970Z,10.45
2023-04-27T05:33:17.059Z,10.60
2023-04-27T05:35:45.120Z,10.72
2023-04-27T05:38:15.209Z,10.85
2023-04-27T05:40:43.438Z,11.02
2023-04-27T05:43:11.704Z,11.26
2023-04-27T05:45:42.376Z,11.49
2023-04-27T05:48:10.508Z,11.74
2023-04-27T05:50:38.659Z,11.97
2023-04-27T05:53:07.110Z,12.07
2023-04-27T05:55:35.228Z,12.18
2023-04-27T05:58:08.389Z,12.28
2023-04-27T06:00:38.528Z,12.35
2023-04-27T06:03:08.250Z,12.48
2023-04-27T06:05:36.640Z,12.50
2023-04-27T06:08:04.909Z,12.43
2023-04-27T06:10:32.964Z,12.41
2023-04-27T06:13:01.116Z,12.40
2023-04-27T06:15:29.372Z,12.39
2023-04-27T06:17:57.548Z,12.37
2023-04-27T06:20:27.593Z,12.49
2023-04-27T06:22:57.155Z,12.56
2023-04-27T06:25:27.176Z,12.66
2023-04-27T06:27:55.738Z,12.85
2023-04-27T06:30:24.315Z,13.02
2023-04-27T06:32:53.232Z,13.07
2023-04-27T06:35:21.594Z,13.13
2023-04-27T06:37:51.424Z,13.08
2023-04-27T06:40:19.669Z,12.86
2023-04-27T06:42:47.914Z,12.72
2023-04-27T06:45:16.083Z,12.63
2023-04-27T06:47:44.200Z,12.55
2023-04-27T06:50:12.382Z,12.46
2023-04-27T06:52:40.509Z,12.30
2023-04-27T06:55:10.776Z,12.23
2023-04-27T06:57:38.870Z,12.25
2023-04-27T07:00:08.967Z,12.26
2023-04-27T07:02:37.126Z,12.28
2023-04-27T07:05:05.606Z,12.27
2023-04-27T07:07:33.693Z,12.46
2023-04-27T07:10:01.761Z,12.52
2023-04-27T07:12:31.443Z,12.84
2023-04-27T07:14:59.520Z,13.04
2023-04-27T07:17:27.656Z,13.19
2023-04-27T07:19:55.797Z,13.47
2023-04-27T07:22:23.955Z,13.66
2023-04-27T07:24:52.680Z,13.86
2023-04-27T07:27:20.836Z,14.28
2023-04-27T07:29:50.462Z,14.78
2023-04-27T07:32:18.639Z,15.15
2023-04-27T07:34:53.314Z,15.44
2023-04-27T07:37:22.528Z,15.74
2023-04-27T07:39:52.024Z,15.94
2023-04-27T07:42:20.258Z,15.99
2023-04-27T07:44:50.649Z,16.04
2023-04-27T07:47:18.800Z,16.03
2023-04-27T07:49:47.222Z,15.87
2023-04-27T07:52:15.965Z,15.74
2023-04-27T07:54:44.332Z,15.71
2023-04-27T07:57:12.880Z,15.73
2023-04-27T07:59:41.061Z,15.76
2023-04-27T08:02:18.569Z,15.80
2023-04-27T08:04:48.610Z,15.88
2023-04-27T08:07:17.804Z,16.00
2023-04-27T08:09:46.282Z,16.01
2023-04-27T08:12:14.547Z,16.06
2023-04-27T08:14:42.642Z,16.09
2023-04-27T08:17:12.474Z,15.96
2023-04-27T08:19:42.111Z,15.78
2023-04-27T08:22:10.264Z,15.68
2023-04-27T08:24:38.472Z,15.54
2023-04-27T08:27:07.258Z,15.36
2023-04-27T08:29:35.507Z,14.99
2023-04-27T08:32:04.631Z,14.72
2023-04-27T08:34:34.246Z,14.45
2023-04-27T08:37:04.460Z,14.16
2023-04-27T08:39:32.831Z,13.96
2023-04-27T08:42:00.909Z,13.73
2023-04-27T08:44:29.016Z,13.53
2023-04-27T08:46:57.153Z,13.35
2023-04-27T08:49:25.178Z,13.27
2023-04-27T08:51:54.636Z,13.25
2023-04-27T08:54:23.045Z,13.23
2023-04-27T08:56:51.193Z,13.31
2023-04-27T08:59:19.261Z,13.38
2023-04-27T09:01:49.171Z,13.41
2023-04-27T09:04:20.031Z,13.51
2023-04-27T09:06:49.773Z,13.62
2023-04-27T09:09:26.306Z,13.67
2023-04-27T09:11:54.470Z,13.77
2023-04-27T09:14:24.835Z,13.85
2023-04-27T09:16:58.181Z,14.03
2023-04-27T09:19:27.173Z,14.25
2023-04-27T09:22:05.527Z,14.42
2023-04-27T09:24:35.035Z,14.56
2023-04-27T09:27:05.206Z,14.64
2023-04-27T09:29:38.691Z,14.66
2023-04-27T09:32:17.731Z,14.74
2023-04-27T09:34:46.455Z,14.71
2023-04-27T09:37:15.651Z,14.57
2023-04-27T09:39:45.856Z,14.46
2023-04-27T09:42:15.942Z,14.39
2023-04-27T09:44:44.030Z,14.38
2023-04-27T09:47:12.402Z,14.47
2023-04-27T09:49:40.584Z,14.72
2023-04-27T09:52:08.683Z,15.16
2023-04-27T09:54:38.357Z,15.58
2023-04-27T09:57:18.147Z,15.98
2023-04-27T09:59:56.807Z,16.13
2023-04-27T10:02:26.027Z,16.18
2023-04-27T10:05:17.696Z,16.22
2023-04-27T10:07:49.381Z,16.32
2023-04-27T10:10:18.912Z,16.22
2023-04-27T10:12:57.857Z,16.04
2023-04-27T10:15:30.306Z,15.87
2023-04-27T10:18:06.151Z,15.82
2023-04-27T10:20:36.106Z,15.86
2023-04-27T10:23:04.756Z,16.00
2023-04-27T10:25:40.622Z,16.02
2023-04-27T10:28:16.415Z,16.23
2023-04-27T10:30:47.293Z,16.35
2023-04-27T10:33:18.800Z,16.21
2023-04-27T10:35:55.605Z,15.94
2023-04-27T10:38:29.581Z,15.91
2023-04-27T10:41:01.775Z,16.08
2023-04-27T10:43:32.875Z,16.17
2023-04-27T10:46:11.689Z,16.01
2023-04-27T10:48:40.817Z,15.83
2023-04-27T10:51:09.446Z,15.69
2023-04-27T10:53:37.800Z,15.73
2023-04-27T10:56:07.233Z,15.74
2023-04-27T11:01:10.136Z,16.01
2023-04-27T11:03:39.114Z,16.09
2023-04-27T11:06:08.681Z,16.06
2023-04-27T11:08:45.281Z,16.05
2023-04-27T11:11:16.929Z,16.15
2023-04-27T11:13:49.435Z,16.38
2023-04-27T11:16:19.602Z,16.61
2023-04-27T11:18:47.796Z,16.86
2023-04-27T11:21:16.876Z,17.12
2023-04-27T11:23:45.234Z,17.33
2023-04-27T11:26:14.803Z,17.70
2023-04-27T11:28:43.200Z,18.09
2023-04-27T11:31:13.049Z,18.26
2023-04-27T11:33:49.044Z,18.60
2023-04-27T11:36:21.156Z,18.81
2023-04-27T11:38:49.304Z,18.90
2023-04-27T11:41:17.821Z,19.11
2023-04-27T11:43:49.631Z,19.44
2023-04-27T11:46:22.747Z,19.78
2023-04-27T11:48:51.019Z,20.11
2023-04-27T11:51:19.438Z,20.37
2023-04-27T11:53:51.267Z,20.36
2023-04-27T11:56:19.477Z,20.33
2023-04-27T11:58:47.670Z,20.48
2023-04-27T12:01:21.839Z,20.73
2023-04-27T12:03:58.684Z,20.95
2023-04-27T12:06:33.237Z,20.86
2023-04-27T12:09:01.889Z,20.68
2023-04-27T12:11:30.146Z,20.59
2023-04-27T12:13:58.753Z,20.54
2023-04-27T12:16:27.076Z,20.33
2023-04-27T12:18:56.635Z,20.13
2023-04-27T12:21:24.854Z,19.96
2023-04-27T12:23:53.003Z,19.84
2023-04-27T12:26:21.633Z,19.63
2023-04-27T12:28:49.903Z,19.38
2023-04-27T12:31:19.059Z,19.26
2023-04-27T12:33:49.298Z,19.18
2023-04-27T12:36:18.848Z,19.11
2023-04-27T12:38:47.374Z,19.09
2023-04-27T12:41:15.722Z,19.17
2023-04-27T12:43:45.899Z,19.28
2023-04-27T12:46:14.084Z,19.45
2023-04-27T12:48:42.302Z,19.67
2023-04-27T12:51:10.517Z,20.29
2023-04-27T12:53:40.078Z,21.40
2023-04-27T12:56:08.592Z,22.90
2023-04-27T12:58:36.638Z,24.56
2023-04-27T13:01:04.850Z,25.69
2023-04-27T13:03:33.027Z,25.86
2023-04-27T13:06:02.065Z,25.51
2023-04-27T13:08:30.874Z,25.09
2023-04-27T13:11:00.415Z,25.31
2023-04-27T13:13:28.539Z,25.24
2023-04-27T13:15:58.367Z,24.77
2023-04-27T13:18:26.734Z,23.81
2023-04-27T13:20:54.949Z,23.11
2023-04-27T13:23:23.019Z,22.57
2023-04-27T13:25:51.152Z,22.24
2023-04-27T13:28:20.731Z,21.90
2023-04-27T13:30:49.143Z,21.26
2023-04-27T13:33:23.173Z,20.81
2023-04-27T13:48:49.261Z,19.29
2023-04-27T13:51:17.546Z,19.45
2023-04-27T13:53:45.928Z,19.60
2023-04-27T13:56:14.233Z,19.63
2023-04-27T13:58:42.562Z,19.55
2023-04-27T14:01:10.980Z,19.48
2023-04-27T14:06:09.742Z,19.13
2023-04-27T14:08:38.108Z,19.31
2023-04-27T14:11:07.412Z,20.25
2023-04-27T14:13:35.743Z,21.25
2023-04-27T14:16:03.858Z,21.23
2023-04-27T14:18:33.514Z,20.99
2023-04-27T14:21:02.054Z,20.59
2023-04-27T14:23:31.964Z,20.22
2023-04-27T14:26:00.073Z,19.72
2023-04-27T14:28:28.140Z,19.16
2023-04-27T14:30:56.234Z,18.82
2023-04-27T14:33:24.226Z,18.54
2023-04-27T14:35:52.499Z,18.15
2023-04-27T14:38:20.638Z,17.95
2023-04-27T14:40:50.221Z,17.68
2023-04-27T14:43:18.369Z,17.78
2023-04-27T14:45:52.926Z,17.96
2023-04-27T14:48:26.419Z,17.87
2023-04-27T14:50:57.544Z,17.70
2023-04-27T14:53:26.032Z,17.63
2023-04-27T14:55:55.515Z,17.62
2023-04-27T14:58:23.712Z,17.65
2023-04-27T15:00:52.081Z,17.45
2023-04-27T15:03:20.435Z,17.22
2023-04-27T15:05:48.739Z,17.16
2023-04-27T15:08:17.241Z,16.95
2023-04-27T15:10:45.523Z,16.83
2023-04-27T15:13:15.228Z,16.68
2023-04-27T15:15:45.653Z,16.58
2023-04-27T15:18:13.982Z,16.44
2023-04-27T15:20:43.565Z,16.32
2023-04-27T15:23:12.197Z,16.18
2023-04-27T15:25:40.380Z,16.06
2023-04-27T15:28:08.492Z,15.88
2023-04-27T15:30:37.996Z,15.68
2023-04-27T15:33:08.181Z,15.55
2023-04-27T15:35:40.361Z,15.47
2023-04-27T15:38:09.595Z,15.49
2023-04-27T15:40:38.027Z,15.50
2023-04-27T15:43:06.141Z,15.45
2023-04-27T15:45:34.312Z,15.38
2023-04-27T15:48:03.889Z,15.31
2023-04-27T15:50:32.236Z,15.21
2023-04-27T15:53:00.824Z,15.16
2023-04-27T15:55:29.071Z,15.09
2023-04-27T15:57:57.242Z,14.98
2023-04-27T16:00:25.496Z,14.95
2023-04-27T16:02:53.920Z,14.93
2023-04-27T16:05:23.588Z,14.89
2023-04-27T16:07:51.671Z,14.95
2023-04-27T16:10:19.831Z,14.89
2023-04-27T16:12:47.924Z,14.79
2023-04-27T16:15:16.179Z,14.73
2023-04-27T16:17:44.324Z,14.66
2023-04-27T16:20:12.849Z,14.56
2023-04-27T16:22:42.300Z,14.48
2023-04-27T16:25:11.468Z,14.47
2023-04-27T16:27:40.264Z,14.34
2023-04-27T16:30:09.436Z,14.31
2023-04-27T16:32:38.716Z,14.32
2023-04-27T16:35:08.048Z,14.30
2023-04-27T16:37:36.259Z,14.23
2023-04-27T16:40:07.800Z,14.18
2023-04-27T16:42:36.073Z,14.08
2023-04-27T16:45:04.350Z,14.05
2023-04-27T16:47:32.680Z,13.93
2023-04-27T16:50:01.107Z,13.90
2023-04-27T16:52:29.310Z,13.87
2023-04-27T16:54:57.619Z,13.87
2023-04-27T16:57:27.173Z,13.77
2023-04-27T16:59:55.503Z,13.80
2023-04-27T17:02:24.993Z,13.64
2023-04-27T17:04:54.454Z,13.56
2023-04-27T17:07:22.782Z,13.46
2023-04-27T17:09:50.959Z,13.39
2023-04-27T17:12:19.082Z,13.31
2023-04-27T17:14:48.588Z,13.15
2023-04-27T17:17:16.867Z,13.07
2023-04-27T17:19:45.051Z,12.96
2023-04-27T17:22:15.055Z,12.87
2023-04-27T17:24:43.390Z,12.80
2023-04-27T17:27:11.966Z,12.80
2023-04-27T17:29:42.097Z,12.74
2023-04-27T17:32:11.739Z,12.72
2023-04-27T17:34:42.447Z,12.68
2023-04-27T17:37:11.069Z,12.72
2023-04-27T17:39:39.269Z,12.75
2023-04-27T17:42:12.235Z,12.78
2023-04-27T17:44:42.115Z,12.76
2023-04-27T17:47:11.832Z,12.64
2023-04-27T17:49:40.159Z,12.59
2023-04-27T17:52:08.347Z,12.52
2023-04-27T17:54:36.899Z,12.47
2023-04-27T17:57:05.760Z,12.40
2023-04-27T17:59:34.253Z,12.38
2023-04-27T18:02:03.087Z,12.38
2023-04-27T18:04:32.814Z,12.44
2023-04-27T18:07:01.178Z,12.50
2023-04-27T18:09:30.860Z,12.49
2023-04-27T18:12:02.411Z,12.46
2023-04-27T18:14:30.871Z,12.47
2023-04-27T18:16:59.103Z,12.45
2023-04-27T18:19:27.394Z,12.34
2023-04-27T18:21:57.006Z,12.27
2023-04-27T18:24:25.417Z,12.25
2023-04-27T18:26:55.237Z,12.23
2023-04-27T18:29:23.397Z,12.20
2023-04-27T18:31:51.598Z,12.09
2023-04-27T18:34:19.745Z,11.99
2023-04-27T18:36:51.994Z,12.07
2023-04-27T18:39:22.150Z,12.03
2023-04-27T18:41:50.229Z,12.01
2023-04-27T18:44:18.781Z,11.94
2023-04-27T18:46:46.841Z,11.90
2023-04-27T18:49:15.230Z,11.84
2023-04-27T18:51:43.721Z,11.75
2023-04-27T18:54:11.836Z,11.67
2023-04-27T18:56:41.619Z,11.59
2023-04-27T18:59:09.808Z,11.53
2023-04-27T19:01:38.264Z,11.46
2023-04-27T19:04:07.385Z,11.38
2023-04-27T19:06:35.810Z,11.35
2023-04-27T19:09:03.905Z,11.28
2023-04-27T19:11:32.231Z,11.24
2023-04-27T19:14:01.895Z,11.24
2023-04-27T19:16:30.314Z,11.28
2023-04-27T19:18:58.655Z,11.30
2023-04-27T19:21:26.933Z,11.28
2023-04-27T19:23:55.068Z,11.22
2023-04-27T19:26:23.241Z,11.18
2023-04-27T19:28:51.365Z,11.07
2023-04-27T19:31:21.032Z,10.98
2023-04-27T19:36:23.124Z,10.83
2023-04-27T19:38:51.564Z,10.71
2023-04-27T19:41:19.886Z,10.60
2023-04-27T19:43:49.390Z,10.52
2023-04-27T19:46:17.632Z,10.46
2023-04-27T19:48:47.508Z,10.41
2023-04-27T19:51:15.883Z,10.33
2023-04-27T19:53:44.105Z,10.28
2023-04-27T19:56:12.211Z,10.26
2023-04-27T19:58:40.361Z,10.24
2023-04-27T20:01:09.966Z,10.18
2023-04-27T20:03:40.306Z,10.09
2023-04-27T20:06:11.715Z,10.03
2023-04-27T20:08:40.354Z,10.00
2023-04-27T20:11:08.629Z,9.93
2023-04-27T20:13:36.865Z,9.89
2023-04-27T20:16:06.779Z,9.87
2023-04-27T20:18:35.207Z,9.81
2023-04-27T20:21:04.338Z,9.80
2023-04-27T20:23:34.061Z,9.80
2023-04-27T20:26:02.741Z,9.78
2023-04-27T20:28:30.949Z,9.73
2023-04-27T20:30:59.169Z,9.69
2023-04-27T20:33:27.365Z,9.64
2023-04-27T20:36:03.704Z,9.59
2023-04-27T20:38:39.769Z,9.54
2023-04-27T20:41:08.819Z,9.50
2023-04-27T20:43:40.320Z,9.46
2023-04-27T20:46:08.744Z,9.42
2023-04-27T20:48:36.994Z,9.43
2023-04-27T20:51:05.234Z,9.38
2023-04-27T20:53:34.066Z,9.32
2023-04-27T20:56:03.899Z,9.26
2023-04-27T20:58:32.153Z,9.24
2023-04-27T21:01:00.774Z,9.21
2023-04-27T21:03:29.352Z,9.18
2023-04-27T21:05:57.617Z,9.12
2023-04-27T21:08:26.624Z,9.06
2023-04-27T21:10:54.847Z,8.99
2023-04-27T21:13:24.460Z,8.94
2023-04-27T21:15:52.566Z,8.83
2023-04-27T21:18:29.897Z,8.67
2023-04-27T21:20:58.965Z,8.49
2023-04-27T21:23:27.169Z,8.29
2023-04-27T21:25:55.902Z,8.13
2023-04-27T21:28:25.401Z,7.98
2023-04-27T21:30:53.557Z,7.85
2023-04-27T21:33:21.675Z,7.69
2023-04-27T21:35:50.075Z,7.54
2023-04-27T21:38:18.160Z,7.38
2023-04-27T21:40:46.233Z,7.19
2023-04-27T21:43:14.490Z,7.04
2023-04-27T21:45:44.251Z,6.91
2023-04-27T21:48:12.499Z,6.81
2023-04-27T21:50:40.849Z,6.72
2023-04-27T21:53:09.486Z,6.64
2023-04-27T21:55:37.888Z,6.57
2023-04-27T21:58:06.041Z,6.49
2023-04-27T22:00:36.649Z,6.40
2023-04-27T22:03:06.721Z,6.32
2023-04-27T22:05:37.224Z,6.27
2023-04-27T22:08:05.646Z,6.26
2023-04-27T22:10:33.929Z,6.22
2023-04-27T22:13:08.212Z,6.17
2023-04-27T22:15:45.977Z,6.16
2023-04-27T22:18:15.892Z,6.14
2023-04-27T22:20:44.348Z,6.13
2023-04-27T22:23:12.678Z,6.13
2023-04-27T22:25:42.904Z,6.11
2023-04-27T22:28:11.410Z,6.13
2023-04-27T22:30:41.858Z,6.11
2023-04-27T22:33:10.417Z,6.12
2023-04-27T22:35:40.253Z,6.12
2023-04-27T22:38:08.749Z,6.12
2023-04-27T22:40:37.404Z,6.12
2023-04-27T22:43:06.446Z,6.13
2023-04-27T22:45:36.131Z,6.09
2023-04-27T22:48:06.882Z,6.08
2023-04-27T22:50:35.280Z,6.05
2023-04-27T22:53:05.005Z,6.03
2023-04-27T22:55:33.071Z,6.00
2023-04-27T22:58:01.308Z,5.95
2023-04-27T23:00:29.495Z,5.88
2023-04-27T23:02:57.786Z,5.82
2023-04-27T23:05:26.885Z,5.78
2023-04-27T23:07:55.140Z,5.71
2023-04-27T23:10:25.119Z,5.65
2023-04-27T23:12:54.890Z,5.58
2023-04-27T23:15:24.071Z,5.53
2023-04-27T23:17:52.276Z,5.44
2023-04-27T23:20:28.000Z,5.38
2023-04-27T23:22:56.624Z,5.32
2023-04-27T23:25:26.562Z,5.24
2023-04-27T23:27:54.883Z,5.17
2023-04-27T23:30:24.720Z,5.08
2023-04-27T23:32:53.460Z,5.03
2023-04-27T23:35:21.690Z,4.90
2023-04-27T23:37:49.894Z,4.80
2023-04-27T23:40:18.545Z,4.75
2023-04-27T23:42:50.849Z,4.71
2023-04-27T23:45:19.818Z,4.68
2023-04-27T23:47:47.994Z,4.63
2023-04-27T23:50:17.258Z,4.60
2023-04-27T23:52:45.580Z,4.57
2023-04-27T23:55:13.715Z,4.58
2023-04-27T23:57:42.433Z,4.56
